Thunder radar more information blitzortung!


Radar de pluja more information rain snow radar


Visita la nostra xarxa de llocs de meteo:

Template documentation
and downloads

And another site



No particular awareness of the weather is required.    There are no Weather-warnings

Pagina Historial Weather Underground text

Diari Resum Juliol 25, 2017 Unitats:  Tant    Imperial   Mètric
« Previous Dia
SegĂźent Dia »
Diari Setmana Mensual Anual Personalitzada
  Maxima: Minima: Media:
Temperatura: 87.3 °F /  30.7 °C 64.8 °F /  18.2 °C 77.2 °F /  25.1 °C
Punt de rosada: 64 °F /  17.8 °C 51.6 °F /  10.9 °C 58.1 °F /  14.5 °C
Humitat: 75 % 35 % 53 %
Wind Speed: 15.2 mph /  24.5 km/h - 5 mph /  8.1 km/h
RĂ fegues de vent: 15.2 mph /  24.5 km/h - -
Vent:- - SSW
Pression baro: 30 in /  1014.8 hPa 29.8 in /  1010.7 hPa -
Precipitacions: 0 in /  0.0 mm    
Historical Graphs
 
 
Dades de taula per Juliol 25, 2017
Temps Temperatura Punt de rosada Pression baro Vent Wind Speed RĂ fegues de vent Humitat Rainfall Rate (Hourly)
00:03 72.5 °F /  22.5 °C 63.7 °F /  17.6 °C 29.9 in /  1013.8 hPa NE 2.9 mph /  4.7 km/h 2.9 mph /  4.7 km/h 74 % 0 in /  0.0 mm
00:05 68.5 °F /  20.3 °C 53.6 °F /  12.0 °C 29.9 in /  1013.8 hPa WSW 3 mph /  4.8 km/h 3 mph /  4.8 km/h 59 % 0 in /  0.0 mm
00:08 72.5 °F /  22.5 °C 64 °F /  17.8 °C 30 in /  1014.8 hPa East 2.3 mph /  3.7 km/h 2.3 mph /  3.7 km/h 75 % 0 in /  0.0 mm
00:15 68.2 °F /  20.1 °C 53.2 °F /  11.8 °C 29.9 in /  1013.8 hPa WSW 2 mph /  3.2 km/h 3 mph /  4.8 km/h 59 % 0 in /  0.0 mm
00:25 67.8 °F /  19.9 °C 53.4 °F /  11.9 °C 29.9 in /  1013.8 hPa WNW 1 mph /  1.6 km/h 4 mph /  6.4 km/h 60 % 0 in /  0.0 mm
00:35 67.5 °F /  19.7 °C 53.1 °F /  11.7 °C 29.9 in /  1013.8 hPa NNW 1 mph /  1.6 km/h 2 mph /  3.2 km/h 60 % 0 in /  0.0 mm
00:45 67.1 °F /  19.5 °C 52.7 °F /  11.5 °C 29.9 in /  1013.8 hPa NNW 1 mph /  1.6 km/h 1 mph /  1.6 km/h 60 % 0 in /  0.0 mm
00:55 66.7 °F /  19.3 °C 52.3 °F /  11.3 °C 29.9 in /  1013.8 hPa WSW 2 mph /  3.2 km/h 3 mph /  4.8 km/h 60 % 0 in /  0.0 mm
01:05 66.6 °F /  19.2 °C 52.2 °F /  11.2 °C 29.9 in /  1013.8 hPa SW 1 mph /  1.6 km/h 3 mph /  4.8 km/h 60 % 0 in /  0.0 mm
01:15 66.2 °F /  19.0 °C 52.3 °F /  11.3 °C 29.9 in /  1013.8 hPa SW 1 mph /  1.6 km/h 2 mph /  3.2 km/h 61 % 0 in /  0.0 mm
01:25 66 °F /  18.9 °C 52.5 °F /  11.4 °C 29.9 in /  1013.8 hPa WSW 1 mph /  1.6 km/h 2 mph /  3.2 km/h 62 % 0 in /  0.0 mm
01:30 65.8 °F /  18.8 °C 52.5 °F /  11.4 °C 29.9 in /  1013.8 hPa WSW 2 mph /  3.2 km/h 2 mph /  3.2 km/h 62 % 0 in /  0.0 mm
01:40 65.5 °F /  18.6 °C 52.5 °F /  11.4 °C 29.9 in /  1012.8 hPa Calm   2 mph /  3.2 km/h 63 % 0 in /  0.0 mm
01:50 65.3 °F /  18.5 °C 52.3 °F /  11.3 °C 29.9 in /  1012.8 hPa WSW 1 mph /  1.6 km/h 2 mph /  3.2 km/h 63 % 0 in /  0.0 mm
02:00 65.1 °F /  18.4 °C 52.2 °F /  11.2 °C 29.9 in /  1013.8 hPa Calm   1 mph /  1.6 km/h 63 % 0 in /  0.0 mm
02:10 65.1 °F /  18.4 °C 52.5 °F /  11.4 °C 29.9 in /  1013.8 hPa SW 1 mph /  1.6 km/h 2 mph /  3.2 km/h 64 % 0 in /  0.0 mm
02:20 64.8 °F /  18.2 °C 52.3 °F /  11.3 °C 29.9 in /  1013.8 hPa SW 1 mph /  1.6 km/h 1 mph /  1.6 km/h 64 % 0 in /  0.0 mm
02:30 65.3 °F /  18.5 °C 52.9 °F /  11.6 °C 29.9 in /  1013.8 hPa WSW 1 mph /  1.6 km/h 2 mph /  3.2 km/h 64 % 0 in /  0.0 mm
02:40 65.8 °F /  18.8 °C 53.2 °F /  11.8 °C 29.9 in /  1013.8 hPa WSW 1 mph /  1.6 km/h 2 mph /  3.2 km/h 64 % 0 in /  0.0 mm
02:50 66.6 °F /  19.2 °C 53.6 °F /  12.0 °C 29.9 in /  1013.8 hPa WSW 1 mph /  1.6 km/h 2 mph /  3.2 km/h 63 % 0 in /  0.0 mm
03:00 67.6 °F /  19.8 °C 54.1 °F /  12.3 °C 29.9 in /  1013.8 hPa WSW 1 mph /  1.6 km/h 3 mph /  4.8 km/h 62 % 0 in /  0.0 mm
03:10 67.8 °F /  19.9 °C 54 °F /  12.2 °C 29.9 in /  1013.8 hPa WSW 1 mph /  1.6 km/h 2 mph /  3.2 km/h 61 % 0 in /  0.0 mm
03:20 68 °F /  20.0 °C 53.6 °F /  12.0 °C 29.9 in /  1013.8 hPa West 2 mph /  3.2 km/h 3 mph /  4.8 km/h 60 % 0 in /  0.0 mm
03:30 69.1 °F /  20.6 °C 54.1 °F /  12.3 °C 29.9 in /  1013.8 hPa WNW 1 mph /  1.6 km/h 3 mph /  4.8 km/h 59 % 0 in /  0.0 mm
03:40 70.2 °F /  21.2 °C 55.2 °F /  12.9 °C 29.9 in /  1013.8 hPa WNW 2 mph /  3.2 km/h 2 mph /  3.2 km/h 59 % 0 in /  0.0 mm
03:50 71.6 °F /  22.0 °C 55.6 °F /  13.1 °C 29.9 in /  1013.8 hPa NW 1 mph /  1.6 km/h 3 mph /  4.8 km/h 57 % 0 in /  0.0 mm
04:00 70.5 °F /  21.4 °C 55 °F /  12.8 °C 29.9 in /  1013.8 hPa Calm   3 mph /  4.8 km/h 58 % 0 in /  0.0 mm
04:10 70.5 °F /  21.4 °C 54.5 °F /  12.5 °C 29.9 in /  1013.8 hPa NNW 1 mph /  1.6 km/h 2 mph /  3.2 km/h 57 % 0 in /  0.0 mm
04:20 69.8 °F /  21.0 °C 54.3 °F /  12.4 °C 29.9 in /  1013.8 hPa WSW 2 mph /  3.2 km/h 3 mph /  4.8 km/h 58 % 0 in /  0.0 mm
04:30 70.7 °F /  21.5 °C 54.7 °F /  12.6 °C 29.9 in /  1013.8 hPa SW 1 mph /  1.6 km/h 3 mph /  4.8 km/h 57 % 0 in /  0.0 mm
04:40 72.5 °F /  22.5 °C 55.9 °F /  13.3 °C 29.9 in /  1013.8 hPa SW 2 mph /  3.2 km/h 2 mph /  3.2 km/h 56 % 0 in /  0.0 mm
04:50 73.4 °F /  23.0 °C 56.1 °F /  13.4 °C 29.9 in /  1013.8 hPa WSW 2 mph /  3.2 km/h 3 mph /  4.8 km/h 55 % 0 in /  0.0 mm
05:00 73.6 °F /  23.1 °C 55.9 °F /  13.3 °C 29.9 in /  1013.8 hPa WSW 1 mph /  1.6 km/h 4 mph /  6.4 km/h 54 % 0 in /  0.0 mm
05:10 75 °F /  23.9 °C 56.7 °F /  13.7 °C 29.9 in /  1013.8 hPa WSW 1 mph /  1.6 km/h 4 mph /  6.4 km/h 53 % 0 in /  0.0 mm
05:20 76.6 °F /  24.8 °C 57.7 °F /  14.3 °C 29.9 in /  1013.8 hPa SSW 1 mph /  1.6 km/h 4 mph /  6.4 km/h 52 % 0 in /  0.0 mm
05:30 76.6 °F /  24.8 °C 57.2 °F /  14.0 °C 29.9 in /  1013.8 hPa SW 2 mph /  3.2 km/h 4 mph /  6.4 km/h 51 % 0 in /  0.0 mm
05:40 76.8 °F /  24.9 °C 56.8 °F /  13.8 °C 29.9 in /  1013.8 hPa SW 2 mph /  3.2 km/h 5 mph /  8.0 km/h 50 % 0 in /  0.0 mm
10:45 76.6 °F /  24.8 °C 56.7 °F /  13.7 °C 29.9 in /  1013.8 hPa West 2.3 mph /  3.7 km/h 2.3 mph /  3.7 km/h 50 % 0 in /  0.0 mm
10:50 76.3 °F /  24.6 °C 55.8 °F /  13.2 °C 29.9 in /  1013.8 hPa WNW 3.5 mph /  5.6 km/h 3.5 mph /  5.6 km/h 49 % 0 in /  0.0 mm
10:51 76.6 °F /  24.8 °C 56.7 °F /  13.7 °C 29.9 in /  1013.8 hPa SW 3.5 mph /  5.6 km/h 3.5 mph /  5.6 km/h 50 % 0 in /  0.0 mm
10:56 77.7 °F /  25.4 °C 56.5 °F /  13.6 °C 29.9 in /  1013.8 hPa SW 3.5 mph /  5.6 km/h 3.5 mph /  5.6 km/h 48 % 0 in /  0.0 mm
11:01 77 °F /  25.0 °C 56.5 °F /  13.6 °C 29.9 in /  1013.8 hPa WNW 3.5 mph /  5.6 km/h 3.5 mph /  5.6 km/h 49 % 0 in /  0.0 mm
11:06 76.5 °F /  24.7 °C 55.9 °F /  13.3 °C 29.9 in /  1013.8 hPa West 2.3 mph /  3.7 km/h 2.3 mph /  3.7 km/h 49 % 0 in /  0.0 mm
11:11 76.5 °F /  24.7 °C 55.9 °F /  13.3 °C 29.9 in /  1013.8 hPa WSW 4.6 mph /  7.4 km/h 4.6 mph /  7.4 km/h 49 % 0 in /  0.0 mm
11:16 76.8 °F /  24.9 °C 55.6 °F /  13.1 °C 29.9 in /  1013.8 hPa SW 2.3 mph /  3.7 km/h 2.3 mph /  3.7 km/h 48 % 0 in /  0.0 mm
11:21 77.9 °F /  25.5 °C 55.9 °F /  13.3 °C 29.9 in /  1013.8 hPa South 3.3 mph /  5.3 km/h 3.3 mph /  5.3 km/h 47 % 0 in /  0.0 mm
11:26 78.8 °F /  26.0 °C 56.8 °F /  13.8 °C 29.9 in /  1013.8 hPa SW 4.6 mph /  7.4 km/h 4.6 mph /  7.4 km/h 47 % 0 in /  0.0 mm
11:31 79.3 °F /  26.3 °C 57.4 °F /  14.1 °C 29.9 in /  1013.8 hPa West 2.3 mph /  3.7 km/h 2.3 mph /  3.7 km/h 47 % 0 in /  0.0 mm
11:36 80.2 °F /  26.8 °C 58.3 °F /  14.6 °C 29.9 in /  1013.8 hPa West 6.2 mph /  10.0 km/h 6.2 mph /  10.0 km/h 47 % 0 in /  0.0 mm
11:41 80.6 °F /  27.0 °C 57.4 °F /  14.1 °C 29.9 in /  1013.8 hPa WNW 5.8 mph /  9.3 km/h 5.8 mph /  9.3 km/h 45 % 0 in /  0.0 mm
11:46 80.8 °F /  27.1 °C 56.8 °F /  13.8 °C 29.9 in /  1013.8 hPa WSW 4.6 mph /  7.4 km/h 4.6 mph /  7.4 km/h 44 % 0 in /  0.0 mm
11:51 81.1 °F /  27.3 °C 56.5 °F /  13.6 °C 29.9 in /  1013.8 hPa WNW 5.8 mph /  9.3 km/h 5.8 mph /  9.3 km/h 43 % 0 in /  0.0 mm
11:56 81.3 °F /  27.4 °C 55.9 °F /  13.3 °C 29.9 in /  1013.8 hPa WNW 5.8 mph /  9.3 km/h 5.8 mph /  9.3 km/h 42 % 0 in /  0.0 mm
12:01 81.5 °F /  27.5 °C 56.1 °F /  13.4 °C 29.9 in /  1013.8 hPa SSE 5.8 mph /  9.3 km/h 5.8 mph /  9.3 km/h 42 % 0 in /  0.0 mm
12:06 82.8 °F /  28.2 °C 57.4 °F /  14.1 °C 29.9 in /  1012.8 hPa WSW 4.3 mph /  6.9 km/h 4.3 mph /  6.9 km/h 42 % 0 in /  0.0 mm
12:11 83.1 °F /  28.4 °C 57 °F /  13.9 °C 29.9 in /  1012.8 hPa West 5.8 mph /  9.3 km/h 5.8 mph /  9.3 km/h 41 % 0 in /  0.0 mm
12:16 83.3 °F /  28.5 °C 57 °F /  13.9 °C 29.9 in /  1012.8 hPa North 3.5 mph /  5.6 km/h 3.8 mph /  6.1 km/h 41 % 0 in /  0.0 mm
12:21 83.8 °F /  28.8 °C 56.1 °F /  13.4 °C 29.9 in /  1012.8 hPa SW 4.9 mph /  7.9 km/h 4.9 mph /  7.9 km/h 39 % 0 in /  0.0 mm
12:26 83.8 °F /  28.8 °C 56.8 °F /  13.8 °C 29.9 in /  1012.8 hPa WSW 4.6 mph /  7.4 km/h 4.6 mph /  7.4 km/h 40 % 0 in /  0.0 mm
12:31 83.1 °F /  28.4 °C 55.6 °F /  13.1 °C 29.9 in /  1012.8 hPa SW 5.8 mph /  9.3 km/h 5.8 mph /  9.3 km/h 39 % 0 in /  0.0 mm
12:36 83.7 °F /  28.7 °C 56.1 °F /  13.4 °C 29.9 in /  1012.8 hPa WSW 5.9 mph /  9.5 km/h 5.9 mph /  9.5 km/h 39 % 0 in /  0.0 mm
12:41 84 °F /  28.9 °C 54.9 °F /  12.7 °C 29.9 in /  1012.8 hPa SE 2.3 mph /  3.7 km/h 2.3 mph /  3.7 km/h 37 % 0 in /  0.0 mm
12:46 84 °F /  28.9 °C 55.8 °F /  13.2 °C 29.9 in /  1012.8 hPa SSW 4.6 mph /  7.4 km/h 4.6 mph /  7.4 km/h 38 % 0 in /  0.0 mm
12:51 84.2 °F /  29.0 °C 54.3 °F /  12.4 °C 29.9 in /  1011.7 hPa SW 8.1 mph /  13.0 km/h 8.1 mph /  13.0 km/h 36 % 0 in /  0.0 mm
12:56 85.5 °F /  29.7 °C 56.1 °F /  13.4 °C 29.9 in /  1011.7 hPa WSW 4.6 mph /  7.4 km/h 4.6 mph /  7.4 km/h 37 % 0 in /  0.0 mm
13:01 85.5 °F /  29.7 °C 56.1 °F /  13.4 °C 29.9 in /  1011.7 hPa SW 5.6 mph /  9.0 km/h 5.6 mph /  9.0 km/h 37 % 0 in /  0.0 mm
13:06 85.6 °F /  29.8 °C 55.6 °F /  13.1 °C 29.9 in /  1011.7 hPa SSW 4.9 mph /  7.9 km/h 4.9 mph /  7.9 km/h 36 % 0 in /  0.0 mm
13:11 86.7 °F /  30.4 °C 56.7 °F /  13.7 °C 29.9 in /  1011.7 hPa SSE 3.8 mph /  6.1 km/h 3.8 mph /  6.1 km/h 36 % 0 in /  0.0 mm
13:16 86.7 °F /  30.4 °C 56.7 °F /  13.7 °C 29.9 in /  1011.7 hPa SSW 3.5 mph /  5.6 km/h 3.5 mph /  5.6 km/h 36 % 0 in /  0.0 mm
13:21 86 °F /  30.0 °C 55.9 °F /  13.3 °C 29.9 in /  1011.7 hPa South 5.8 mph /  9.3 km/h 5.8 mph /  9.3 km/h 36 % 0 in /  0.0 mm
13:26 86 °F /  30.0 °C 55.2 °F /  12.9 °C 29.9 in /  1011.7 hPa SSE 5.8 mph /  9.3 km/h 5.8 mph /  9.3 km/h 35 % 0 in /  0.0 mm
13:31 85.8 °F /  29.9 °C 55.8 °F /  13.2 °C 29.9 in /  1011.7 hPa South 2.3 mph /  3.7 km/h 2.3 mph /  3.7 km/h 36 % 0 in /  0.0 mm
13:36 86 °F /  30.0 °C 55.9 °F /  13.3 °C 29.9 in /  1011.7 hPa WSW 6.9 mph /  11.1 km/h 6.9 mph /  11.1 km/h 36 % 0 in /  0.0 mm
13:41 85.6 °F /  29.8 °C 55.6 °F /  13.1 °C 29.9 in /  1011.7 hPa East 3.8 mph /  6.1 km/h 3.8 mph /  6.1 km/h 36 % 0 in /  0.0 mm
13:46 86.5 °F /  30.3 °C 56.5 °F /  13.6 °C 29.9 in /  1011.7 hPa SW 6.2 mph /  10.0 km/h 6.2 mph /  10.0 km/h 36 % 0 in /  0.0 mm
13:51 86.5 °F /  30.3 °C 55.6 °F /  13.1 °C 29.9 in /  1011.7 hPa South 3.1 mph /  5.0 km/h 3.1 mph /  5.0 km/h 35 % 0 in /  0.0 mm
13:57 85.8 °F /  29.9 °C 56.5 °F /  13.6 °C 29.9 in /  1011.7 hPa SSW 9.2 mph /  14.8 km/h 9.2 mph /  14.8 km/h 37 % 0 in /  0.0 mm
13:58 86.2 °F /  30.1 °C 56.8 °F /  13.8 °C 29.9 in /  1011.7 hPa WSW 4.6 mph /  7.4 km/h 4.6 mph /  7.4 km/h 37 % 0 in /  0.0 mm
14:03 86.9 °F /  30.5 °C 58.3 °F /  14.6 °C 29.9 in /  1011.7 hPa SW 5.8 mph /  9.3 km/h 5.8 mph /  9.3 km/h 38 % 0 in /  0.0 mm
14:08 86.4 °F /  30.2 °C 57.7 °F /  14.3 °C 29.8 in /  1010.7 hPa SW 4.6 mph /  7.4 km/h 4.6 mph /  7.4 km/h 38 % 0 in /  0.0 mm
14:13 87.3 °F /  30.7 °C 58.6 °F /  14.8 °C 29.8 in /  1010.7 hPa SW 8.1 mph /  13.0 km/h 8.1 mph /  13.0 km/h 38 % 0 in /  0.0 mm
14:18 86.2 °F /  30.1 °C 56.8 °F /  13.8 °C 29.8 in /  1010.7 hPa WSW 10.4 mph /  16.7 km/h 10.4 mph /  16.7 km/h 37 % 0 in /  0.0 mm
14:23 86.4 °F /  30.2 °C 57 °F /  13.9 °C 29.9 in /  1011.7 hPa SW 8.1 mph /  13.0 km/h 8.1 mph /  13.0 km/h 37 % 0 in /  0.0 mm
14:28 86 °F /  30.0 °C 56.7 °F /  13.7 °C 29.9 in /  1011.7 hPa WSW 8.1 mph /  13.0 km/h 8.1 mph /  13.0 km/h 37 % 0 in /  0.0 mm
14:33 85.3 °F /  29.6 °C 56.8 °F /  13.8 °C 29.9 in /  1011.7 hPa WSW 11.5 mph /  18.5 km/h 11.5 mph /  18.5 km/h 38 % 0 in /  0.0 mm
14:38 85.3 °F /  29.6 °C 57.6 °F /  14.2 °C 29.9 in /  1011.7 hPa SW 7.8 mph /  12.6 km/h 7.8 mph /  12.6 km/h 39 % 0 in /  0.0 mm
14:43 85.5 °F /  29.7 °C 57.7 °F /  14.3 °C 29.9 in /  1011.7 hPa SW 10 mph /  16.1 km/h 10 mph /  16.1 km/h 39 % 0 in /  0.0 mm
14:48 85.3 °F /  29.6 °C 57.6 °F /  14.2 °C 29.9 in /  1011.7 hPa SE 10.4 mph /  16.7 km/h 10.4 mph /  16.7 km/h 39 % 0 in /  0.0 mm
14:53 84.7 °F /  29.3 °C 57 °F /  13.9 °C 29.9 in /  1011.7 hPa WSW 11.2 mph /  18.0 km/h 11.2 mph /  18.0 km/h 39 % 0 in /  0.0 mm
14:58 84.7 °F /  29.3 °C 57 °F /  13.9 °C 29.9 in /  1011.7 hPa WSW 12.8 mph /  20.6 km/h 12.8 mph /  20.6 km/h 39 % 0 in /  0.0 mm
15:03 84 °F /  28.9 °C 57 °F /  13.9 °C 29.9 in /  1011.7 hPa SW 5.8 mph /  9.3 km/h 5.8 mph /  9.3 km/h 40 % 0 in /  0.0 mm
15:08 84.2 °F /  29.0 °C 57.4 °F /  14.1 °C 29.9 in /  1011.7 hPa SSW 15 mph /  24.1 km/h 15 mph /  24.1 km/h 40 % 0 in /  0.0 mm
15:13 84.6 °F /  29.2 °C 57.6 °F /  14.2 °C 29.9 in /  1011.7 hPa WNW 10.7 mph /  17.2 km/h 10.7 mph /  17.2 km/h 40 % 0 in /  0.0 mm
15:18 83.8 °F /  28.8 °C 57.6 °F /  14.2 °C 29.9 in /  1011.7 hPa South 11.5 mph /  18.5 km/h 11.5 mph /  18.5 km/h 41 % 0 in /  0.0 mm
15:23 83.8 °F /  28.8 °C 57.6 °F /  14.2 °C 29.9 in /  1011.7 hPa SW 12.7 mph /  20.4 km/h 12.7 mph /  20.4 km/h 41 % 0 in /  0.0 mm
15:28 83.8 °F /  28.8 °C 58.3 °F /  14.6 °C 29.9 in /  1011.7 hPa South 8.1 mph /  13.0 km/h 8.1 mph /  13.0 km/h 42 % 0 in /  0.0 mm
15:33 84.2 °F /  29.0 °C 57.9 °F /  14.4 °C 29.9 in /  1011.7 hPa WSW 8.1 mph /  13.0 km/h 8.1 mph /  13.0 km/h 41 % 0 in /  0.0 mm
15:38 83.8 °F /  28.8 °C 58.3 °F /  14.6 °C 29.9 in /  1011.7 hPa SW 15.2 mph /  24.5 km/h 15.2 mph /  24.5 km/h 42 % 0 in /  0.0 mm
15:43 82.9 °F /  28.3 °C 58.1 °F /  14.5 °C 29.9 in /  1011.7 hPa SSW 12.7 mph /  20.4 km/h 12.7 mph /  20.4 km/h 43 % 0 in /  0.0 mm
15:48 83.7 °F /  28.7 °C 58.8 °F /  14.9 °C 29.9 in /  1011.7 hPa SSW 5.8 mph /  9.3 km/h 6 mph /  9.7 km/h 43 % 0 in /  0.0 mm
15:53 83.7 °F /  28.7 °C 58.8 °F /  14.9 °C 29.9 in /  1011.7 hPa SW 13.8 mph /  22.2 km/h 13.8 mph /  22.2 km/h 43 % 0 in /  0.0 mm
15:58 83.5 °F /  28.6 °C 59.4 °F /  15.2 °C 29.9 in /  1011.7 hPa WSW 6.9 mph /  11.1 km/h 6.9 mph /  11.1 km/h 44 % 0 in /  0.0 mm
16:03 83.8 °F /  28.8 °C 59 °F /  15.0 °C 29.9 in /  1011.7 hPa South 5.8 mph /  9.3 km/h 6.2 mph /  10.0 km/h 43 % 0 in /  0.0 mm
16:08 83.1 °F /  28.4 °C 58.3 °F /  14.6 °C 29.9 in /  1011.7 hPa WNW 12.7 mph /  20.4 km/h 12.7 mph /  20.4 km/h 43 % 0 in /  0.0 mm
16:13 82.8 °F /  28.2 °C 58.6 °F /  14.8 °C 29.9 in /  1011.7 hPa South 15 mph /  24.1 km/h 15 mph /  24.1 km/h 44 % 0 in /  0.0 mm
16:18 82.9 °F /  28.3 °C 58.8 °F /  14.9 °C 29.9 in /  1011.7 hPa SSE 11.5 mph /  18.5 km/h 11.5 mph /  18.5 km/h 44 % 0 in /  0.0 mm
16:23 83.1 °F /  28.4 °C 58.8 °F /  14.9 °C 29.8 in /  1010.7 hPa WNW 9.2 mph /  14.8 km/h 9.2 mph /  14.8 km/h 44 % 0 in /  0.0 mm
16:28 84.2 °F /  29.0 °C 59.4 °F /  15.2 °C 29.8 in /  1010.7 hPa SSW 9.2 mph /  14.8 km/h 9.2 mph /  14.8 km/h 43 % 0 in /  0.0 mm
16:29 84.4 °F /  29.1 °C 59.4 °F /  15.2 °C 29.8 in /  1010.7 hPa WSW 12.1 mph /  19.5 km/h 12.1 mph /  19.5 km/h 43 % 0 in /  0.0 mm
16:34 83.7 °F /  28.7 °C 59.4 °F /  15.2 °C 29.9 in /  1011.7 hPa SW 10.9 mph /  17.5 km/h 10.9 mph /  17.5 km/h 44 % 0 in /  0.0 mm
16:39 83.3 °F /  28.5 °C 59.2 °F /  15.1 °C 29.9 in /  1011.7 hPa WSW 12.7 mph /  20.4 km/h 12.7 mph /  20.4 km/h 44 % 0 in /  0.0 mm
16:44 83.1 °F /  28.4 °C 58.8 °F /  14.9 °C 29.9 in /  1011.7 hPa South 9.2 mph /  14.8 km/h 9.2 mph /  14.8 km/h 44 % 0 in /  0.0 mm
16:49 83.8 °F /  28.8 °C 60.3 °F /  15.7 °C 29.9 in /  1011.7 hPa WSW 4.6 mph /  7.4 km/h 4.6 mph /  7.4 km/h 45 % 0 in /  0.0 mm
16:54 83.8 °F /  28.8 °C 59.5 °F /  15.3 °C 29.9 in /  1011.7 hPa WSW 8.5 mph /  13.7 km/h 8.5 mph /  13.7 km/h 44 % 0 in /  0.0 mm
16:59 84 °F /  28.9 °C 60.4 °F /  15.8 °C 29.9 in /  1011.7 hPa SW 4.6 mph /  7.4 km/h 4.6 mph /  7.4 km/h 45 % 0 in /  0.0 mm
17:04 84 °F /  28.9 °C 59.7 °F /  15.4 °C 29.9 in /  1011.7 hPa SSW 6.9 mph /  11.1 km/h 7.4 mph /  11.9 km/h 44 % 0 in /  0.0 mm
17:09 83.1 °F /  28.4 °C 58.8 °F /  14.9 °C 29.9 in /  1011.7 hPa SW 9.2 mph /  14.8 km/h 9.2 mph /  14.8 km/h 44 % 0 in /  0.0 mm
17:14 83.3 °F /  28.5 °C 59.2 °F /  15.1 °C 29.9 in /  1011.7 hPa WSW 12.7 mph /  20.4 km/h 12.7 mph /  20.4 km/h 44 % 0 in /  0.0 mm
17:19 83.1 °F /  28.4 °C 59.5 °F /  15.3 °C 29.9 in /  1011.7 hPa SSW 8.1 mph /  13.0 km/h 8.1 mph /  13.0 km/h 45 % 0 in /  0.0 mm
17:24 82.9 °F /  28.3 °C 59.4 °F /  15.2 °C 29.9 in /  1011.7 hPa WSW 6.9 mph /  11.1 km/h 6.9 mph /  11.1 km/h 45 % 0 in /  0.0 mm
17:25 82.9 °F /  28.3 °C 59.4 °F /  15.2 °C 29.9 in /  1011.7 hPa WSW 6.9 mph /  11.1 km/h 6.9 mph /  11.1 km/h 45 % 0 in /  0.0 mm
17:30 82.9 °F /  28.3 °C 59.4 °F /  15.2 °C 29.9 in /  1011.7 hPa South 8.1 mph /  13.0 km/h 8.1 mph /  13.0 km/h 45 % 0 in /  0.0 mm
17:35 83.1 °F /  28.4 °C 59.5 °F /  15.3 °C 29.9 in /  1011.7 hPa SSW 10.4 mph /  16.7 km/h 10.4 mph /  16.7 km/h 45 % 0 in /  0.0 mm
17:40 83.3 °F /  28.5 °C 59.7 °F /  15.4 °C 29.9 in /  1011.7 hPa SW 8.1 mph /  13.0 km/h 8.1 mph /  13.0 km/h 45 % 0 in /  0.0 mm
17:45 82.8 °F /  28.2 °C 59.4 °F /  15.2 °C 29.9 in /  1011.7 hPa SE 8.1 mph /  13.0 km/h 8.1 mph /  13.0 km/h 45 % 0 in /  0.0 mm
17:50 82.6 °F /  28.1 °C 59.2 °F /  15.1 °C 29.9 in /  1011.7 hPa SW 9.2 mph /  14.8 km/h 9.2 mph /  14.8 km/h 45 % 0 in /  0.0 mm
17:55 82.4 °F /  28.0 °C 58.8 °F /  14.9 °C 29.9 in /  1011.7 hPa South 4.6 mph /  7.4 km/h 4.6 mph /  7.4 km/h 45 % 0 in /  0.0 mm
18:00 81.3 °F /  27.4 °C 58.6 °F /  14.8 °C 29.9 in /  1011.7 hPa West 12.7 mph /  20.4 km/h 12.7 mph /  20.4 km/h 46 % 0 in /  0.0 mm
18:05 80.8 °F /  27.1 °C 58.1 °F /  14.5 °C 29.9 in /  1011.7 hPa WSW 12.7 mph /  20.4 km/h 12.7 mph /  20.4 km/h 46 % 0 in /  0.0 mm
18:10 81 °F /  27.2 °C 58.3 °F /  14.6 °C 29.9 in /  1011.7 hPa South 9.8 mph /  15.8 km/h 9.8 mph /  15.8 km/h 46 % 0 in /  0.0 mm
18:15 81.1 °F /  27.3 °C 59 °F /  15.0 °C 29.9 in /  1011.7 hPa WSW 9.2 mph /  14.8 km/h 9.2 mph /  14.8 km/h 47 % 0 in /  0.0 mm
18:20 80.8 °F /  27.1 °C 58.6 °F /  14.8 °C 29.8 in /  1010.7 hPa SSE 9.2 mph /  14.8 km/h 9.2 mph /  14.8 km/h 47 % 0 in /  0.0 mm
18:25 80.8 °F /  27.1 °C 58.6 °F /  14.8 °C 29.8 in /  1010.7 hPa SW 9.7 mph /  15.6 km/h 9.7 mph /  15.6 km/h 47 % 0 in /  0.0 mm
18:30 80.8 °F /  27.1 °C 58.6 °F /  14.8 °C 29.8 in /  1010.7 hPa South 10.9 mph /  17.5 km/h 10.9 mph /  17.5 km/h 47 % 0 in /  0.0 mm
18:35 80.6 °F /  27.0 °C 59.2 °F /  15.1 °C 29.8 in /  1010.7 hPa WSW 8.1 mph /  13.0 km/h 8.1 mph /  13.0 km/h 48 % 0 in /  0.0 mm
18:40 80.6 °F /  27.0 °C 59.2 °F /  15.1 °C 29.8 in /  1010.7 hPa SSW 13.8 mph /  22.2 km/h 13.8 mph /  22.2 km/h 48 % 0 in /  0.0 mm
18:45 80.8 °F /  27.1 °C 59.4 °F /  15.2 °C 29.8 in /  1010.7 hPa South 8.1 mph /  13.0 km/h 8.1 mph /  13.0 km/h 48 % 0 in /  0.0 mm
18:50 80.6 °F /  27.0 °C 59.2 °F /  15.1 °C 29.9 in /  1011.7 hPa WSW 8.1 mph /  13.0 km/h 8.1 mph /  13.0 km/h 48 % 0 in /  0.0 mm
18:55 80.2 °F /  26.8 °C 59.9 °F /  15.5 °C 29.9 in /  1011.7 hPa WSW 9.2 mph /  14.8 km/h 9.2 mph /  14.8 km/h 50 % 0 in /  0.0 mm
18:56 80.2 °F /  26.8 °C 59.9 °F /  15.5 °C 29.9 in /  1011.7 hPa South 9.2 mph /  14.8 km/h 9.2 mph /  14.8 km/h 50 % 0 in /  0.0 mm
19:01 80.6 °F /  27.0 °C 59.7 °F /  15.4 °C 29.9 in /  1011.7 hPa South 5.8 mph /  9.3 km/h 5.8 mph /  9.3 km/h 49 % 0 in /  0.0 mm
19:06 80.2 °F /  26.8 °C 59.9 °F /  15.5 °C 29.8 in /  1010.7 hPa SW 7.4 mph /  11.9 km/h 7.4 mph /  11.9 km/h 50 % 0 in /  0.0 mm
19:11 80.1 °F /  26.7 °C 59.7 °F /  15.4 °C 29.8 in /  1010.7 hPa SSW 6.9 mph /  11.1 km/h 6.9 mph /  11.1 km/h 50 % 0 in /  0.0 mm
19:16 80.2 °F /  26.8 °C 60.4 °F /  15.8 °C 29.8 in /  1010.7 hPa SW 8.1 mph /  13.0 km/h 8.1 mph /  13.0 km/h 51 % 0 in /  0.0 mm
19:17 80.1 °F /  26.7 °C 60.3 °F /  15.7 °C 29.8 in /  1010.7 hPa South 6.9 mph /  11.1 km/h 6.9 mph /  11.1 km/h 51 % 0 in /  0.0 mm
19:22 79.7 °F /  26.5 °C 60.1 °F /  15.6 °C 29.8 in /  1010.7 hPa SSW 5.8 mph /  9.3 km/h 5.8 mph /  9.3 km/h 51 % 0 in /  0.0 mm
19:27 79.7 °F /  26.5 °C 60.1 °F /  15.6 °C 29.8 in /  1010.7 hPa ENE 5.9 mph /  9.5 km/h 5.9 mph /  9.5 km/h 51 % 0 in /  0.0 mm
19:32 79.3 °F /  26.3 °C 60.3 °F /  15.7 °C 29.8 in /  1010.7 hPa South 8.1 mph /  13.0 km/h 8.1 mph /  13.0 km/h 52 % 0 in /  0.0 mm
19:37 79.2 °F /  26.2 °C 60.1 °F /  15.6 °C 29.8 in /  1010.7 hPa SSW 6.9 mph /  11.1 km/h 6.9 mph /  11.1 km/h 52 % 0 in /  0.0 mm
19:42 79.2 °F /  26.2 °C 60.1 °F /  15.6 °C 29.8 in /  1010.7 hPa SW 5.8 mph /  9.3 km/h 5.8 mph /  9.3 km/h 52 % 0 in /  0.0 mm
19:47 78.6 °F /  25.9 °C 59.5 °F /  15.3 °C 29.8 in /  1010.7 hPa SW 6.9 mph /  11.1 km/h 6.9 mph /  11.1 km/h 52 % 0 in /  0.0 mm
19:52 78.3 °F /  25.7 °C 59.2 °F /  15.1 °C 29.8 in /  1010.7 hPa SW 4.6 mph /  7.4 km/h 4.6 mph /  7.4 km/h 52 % 0 in /  0.0 mm
19:57 77.7 °F /  25.4 °C 59.2 °F /  15.1 °C 29.8 in /  1010.7 hPa SSW 6.9 mph /  11.1 km/h 6.9 mph /  11.1 km/h 53 % 0 in /  0.0 mm
20:02 77.4 °F /  25.2 °C 58.8 °F /  14.9 °C 29.8 in /  1010.7 hPa South 6.9 mph /  11.1 km/h 6.9 mph /  11.1 km/h 53 % 0 in /  0.0 mm
20:07 77.4 °F /  25.2 °C 59.4 °F /  15.2 °C 29.8 in /  1010.7 hPa SSE 3.5 mph /  5.6 km/h 3.5 mph /  5.6 km/h 54 % 0 in /  0.0 mm
20:12 77.4 °F /  25.2 °C 59.4 °F /  15.2 °C 29.8 in /  1010.7 hPa SW 3.5 mph /  5.6 km/h 3.5 mph /  5.6 km/h 54 % 0 in /  0.0 mm
20:15 70.7 °F /  21.5 °C 61.5 °F /  16.4 °C 29.9 in /  1011.7 hPa NE 2 mph /  3.2 km/h 2 mph /  3.2 km/h 73 % 0 in /  0.0 mm
20:17 77 °F /  25.0 °C 59.2 °F /  15.1 °C 29.8 in /  1010.7 hPa SW 5.8 mph /  9.3 km/h 5.8 mph /  9.3 km/h 54 % 0 in /  0.0 mm
20:22 76.6 °F /  24.8 °C 59.7 °F /  15.4 °C 29.9 in /  1011.7 hPa South 3.5 mph /  5.6 km/h 3.5 mph /  5.6 km/h 56 % 0 in /  0.0 mm
20:24 76.6 °F /  24.8 °C 59.7 °F /  15.4 °C 29.9 in /  1011.7 hPa SW 4.6 mph /  7.4 km/h 4.6 mph /  7.4 km/h 56 % 0 in /  0.0 mm
20:25 70.5 °F /  21.4 °C 61.3 °F /  16.3 °C 29.9 in /  1011.7 hPa NE 2 mph /  3.2 km/h 2 mph /  3.2 km/h 73 % 0 in /  0.0 mm
20:29 76.3 °F /  24.6 °C 59.4 °F /  15.2 °C 29.9 in /  1011.7 hPa SW 3.5 mph /  5.6 km/h 3.5 mph /  5.6 km/h 56 % 0 in /  0.0 mm
20:34 76.5 °F /  24.7 °C 59.5 °F /  15.3 °C 29.9 in /  1011.7 hPa SE 2.3 mph /  3.7 km/h 2.4 mph /  3.9 km/h 56 % 0 in /  0.0 mm
20:35 70.3 °F /  21.3 °C 61.7 °F /  16.5 °C 29.9 in /  1011.7 hPa NE 1 mph /  1.6 km/h 2 mph /  3.2 km/h 74 % 0 in /  0.0 mm
20:39 76.3 °F /  24.6 °C 60.4 °F /  15.8 °C 29.9 in /  1011.7 hPa ESE 6.9 mph /  11.1 km/h 6.9 mph /  11.1 km/h 58 % 0 in /  0.0 mm
20:44 75.7 °F /  24.3 °C 59.9 °F /  15.5 °C 29.9 in /  1011.7 hPa South 5.8 mph /  9.3 km/h 5.8 mph /  9.3 km/h 58 % 0 in /  0.0 mm
20:45 70.3 °F /  21.3 °C 61.7 °F /  16.5 °C 29.9 in /  1011.7 hPa ENE 1 mph /  1.6 km/h 3 mph /  4.8 km/h 74 % 0 in /  0.0 mm
20:49 75.6 °F /  24.2 °C 60.3 °F /  15.7 °C 29.9 in /  1011.7 hPa SSW 3.5 mph /  5.6 km/h 3.5 mph /  5.6 km/h 59 % 0 in /  0.0 mm
20:54 75.2 °F /  24.0 °C 59.9 °F /  15.5 °C 29.9 in /  1011.7 hPa SE 8.1 mph /  13.0 km/h 8.1 mph /  13.0 km/h 59 % 0 in /  0.0 mm
20:55 70.3 °F /  21.3 °C 61.7 °F /  16.5 °C 29.9 in /  1011.7 hPa ENE 1 mph /  1.6 km/h 3 mph /  4.8 km/h 74 % 0 in /  0.0 mm
20:59 75.2 °F /  24.0 °C 60.4 °F /  15.8 °C 29.9 in /  1011.7 hPa SSE 4.6 mph /  7.4 km/h 4.6 mph /  7.4 km/h 60 % 0 in /  0.0 mm
21:04 75 °F /  23.9 °C 60.6 °F /  15.9 °C 29.9 in /  1011.7 hPa South 3.5 mph /  5.6 km/h 3.5 mph /  5.6 km/h 61 % 0 in /  0.0 mm
21:05 70.2 °F /  21.2 °C 61.9 °F /  16.6 °C 29.9 in /  1011.7 hPa ENE 1 mph /  1.6 km/h 3 mph /  4.8 km/h 75 % 0 in /  0.0 mm
21:09 74.8 °F /  23.8 °C 61 °F /  16.1 °C 29.9 in /  1011.7 hPa East 6.4 mph /  10.3 km/h 6.4 mph /  10.3 km/h 62 % 0 in /  0.0 mm
21:14 74.5 °F /  23.6 °C 61.2 °F /  16.2 °C 29.9 in /  1011.7 hPa ESE 5.8 mph /  9.3 km/h 5.8 mph /  9.3 km/h 63 % 0 in /  0.0 mm
21:15 70.2 °F /  21.2 °C 61.9 °F /  16.6 °C 29.9 in /  1011.7 hPa East 1 mph /  1.6 km/h 2 mph /  3.2 km/h 75 % 0 in /  0.0 mm
21:19 74.3 °F /  23.5 °C 61.3 °F /  16.3 °C 29.9 in /  1012.8 hPa South 4.6 mph /  7.4 km/h 4.6 mph /  7.4 km/h 64 % 0 in /  0.0 mm
21:24 74.1 °F /  23.4 °C 61.2 °F /  16.2 °C 29.9 in /  1012.8 hPa ESE 5.8 mph /  9.3 km/h 5.8 mph /  9.3 km/h 64 % 0 in /  0.0 mm
21:25 70.2 °F /  21.2 °C 61.9 °F /  16.6 °C 29.9 in /  1011.7 hPa Calm   2 mph /  3.2 km/h 75 % 0 in /  0.0 mm
21:29 73.9 °F /  23.3 °C 61 °F /  16.1 °C 29.9 in /  1012.8 hPa ESE 6.9 mph /  11.1 km/h 6.9 mph /  11.1 km/h 64 % 0 in /  0.0 mm
21:34 73.9 °F /  23.3 °C 61.3 °F /  16.3 °C 29.8 in /  1010.7 hPa SE 5.8 mph /  9.3 km/h 5.8 mph /  9.3 km/h 65 % 0 in /  0.0 mm
21:35 70 °F /  21.1 °C 61.3 °F /  16.3 °C 29.9 in /  1011.7 hPa ESE 1 mph /  1.6 km/h   74 % 0 in /  0.0 mm
21:39 73.8 °F /  23.2 °C 61.3 °F /  16.3 °C 29.8 in /  1010.7 hPa SSE 4.6 mph /  7.4 km/h 4.6 mph /  7.4 km/h 65 % 0 in /  0.0 mm
21:44 73.8 °F /  23.2 °C 61.3 °F /  16.3 °C 29.8 in /  1010.7 hPa SE 2 mph /  3.2 km/h 2 mph /  3.2 km/h 65 % 0 in /  0.0 mm
21:45 70 °F /  21.1 °C 61.3 °F /  16.3 °C 29.9 in /  1011.7 hPa Calm     74 % 0 in /  0.0 mm
21:49 73.8 °F /  23.2 °C 61.7 °F /  16.5 °C 29.9 in /  1011.7 hPa SSE 2.6 mph /  4.2 km/h 2.6 mph /  4.2 km/h 66 % 0 in /  0.0 mm
21:54 73.8 °F /  23.2 °C 61.3 °F /  16.3 °C 29.9 in /  1011.7 hPa SE 2.4 mph /  3.9 km/h 2.4 mph /  3.9 km/h 65 % 0 in /  0.0 mm
21:55 70 °F /  21.1 °C 61.3 °F /  16.3 °C 29.9 in /  1011.7 hPa SW 1 mph /  1.6 km/h 2 mph /  3.2 km/h 74 % 0 in /  0.0 mm
21:59 73.6 °F /  23.1 °C 61.5 °F /  16.4 °C 29.9 in /  1011.7 hPa ESE 4.7 mph /  7.6 km/h 4.7 mph /  7.6 km/h 66 % 0 in /  0.0 mm
22:04 73.4 °F /  23.0 °C 61.3 °F /  16.3 °C 29.9 in /  1011.7 hPa SSE 3.5 mph /  5.6 km/h 3.5 mph /  5.6 km/h 66 % 0 in /  0.0 mm
22:05 70 °F /  21.1 °C 61.7 °F /  16.5 °C 29.9 in /  1011.7 hPa SW 2 mph /  3.2 km/h 2 mph /  3.2 km/h 75 % 0 in /  0.0 mm
22:09 73.4 °F /  23.0 °C 61.3 °F /  16.3 °C 29.9 in /  1011.7 hPa ESE 3.5 mph /  5.6 km/h 3.5 mph /  5.6 km/h 66 % 0 in /  0.0 mm
22:14 73.2 °F /  22.9 °C 61.5 °F /  16.4 °C 29.9 in /  1011.7 hPa ENE 3.5 mph /  5.6 km/h 3.5 mph /  5.6 km/h 67 % 0 in /  0.0 mm
22:15 69.8 °F /  21.0 °C 59.5 °F /  15.3 °C 29.9 in /  1011.7 hPa WSW 2 mph /  3.2 km/h 4 mph /  6.4 km/h 70 % 0 in /  0.0 mm
22:19 73 °F /  22.8 °C 61.9 °F /  16.6 °C 29.9 in /  1011.7 hPa East 3.5 mph /  5.6 km/h 3.5 mph /  5.6 km/h 68 % 0 in /  0.0 mm
22:24 72.9 °F /  22.7 °C 61.7 °F /  16.5 °C 29.9 in /  1011.7 hPa ENE 2.3 mph /  3.7 km/h 2.3 mph /  3.7 km/h 68 % 0 in /  0.0 mm
22:25 69.8 °F /  21.0 °C 57 °F /  13.9 °C 29.8 in /  1010.7 hPa WSW 3 mph /  4.8 km/h 4 mph /  6.4 km/h 64 % 0 in /  0.0 mm
22:29 73 °F /  22.8 °C 61.9 °F /  16.6 °C 29.9 in /  1011.7 hPa ESE 3.5 mph /  5.6 km/h 3.5 mph /  5.6 km/h 68 % 0 in /  0.0 mm
22:34 73 °F /  22.8 °C 61.3 °F /  16.3 °C 29.9 in /  1011.7 hPa ESE 2 mph /  3.2 km/h 2 mph /  3.2 km/h 67 % 0 in /  0.0 mm
22:35 69.6 °F /  20.9 °C 55.6 °F /  13.1 °C 29.9 in /  1011.7 hPa WSW 2 mph /  3.2 km/h 5 mph /  8.0 km/h 61 % 0 in /  0.0 mm
22:39 73 °F /  22.8 °C 61.3 °F /  16.3 °C 29.9 in /  1011.7 hPa East 2.9 mph /  4.7 km/h 2.9 mph /  4.7 km/h 67 % 0 in /  0.0 mm
22:44 73 °F /  22.8 °C 61.9 °F /  16.6 °C 29.9 in /  1011.7 hPa NE 3.5 mph /  5.6 km/h 3.5 mph /  5.6 km/h 68 % 0 in /  0.0 mm
22:45 69.4 °F /  20.8 °C 54.5 °F /  12.5 °C 29.9 in /  1011.7 hPa WSW 2 mph /  3.2 km/h 3 mph /  4.8 km/h 59 % 0 in /  0.0 mm
22:49 72.9 °F /  22.7 °C 61.7 °F /  16.5 °C 29.9 in /  1011.7 hPa East 1.2 mph /  1.9 km/h 1.2 mph /  1.9 km/h 68 % 0 in /  0.0 mm
22:54 73 °F /  22.8 °C 61.9 °F /  16.6 °C 29.9 in /  1011.7 hPa ENE 3.5 mph /  5.6 km/h 3.5 mph /  5.6 km/h 68 % 0 in /  0.0 mm
22:55 69.4 °F /  20.8 °C 54.5 °F /  12.5 °C 29.9 in /  1011.7 hPa West 2 mph /  3.2 km/h 3 mph /  4.8 km/h 59 % 0 in /  0.0 mm
22:59 72.9 °F /  22.7 °C 61.7 °F /  16.5 °C 29.9 in /  1011.7 hPa ENE 2.4 mph /  3.9 km/h 2.4 mph /  3.9 km/h 68 % 0 in /  0.0 mm
23:04 72.9 °F /  22.7 °C 61.7 °F /  16.5 °C 29.9 in /  1011.7 hPa ENE 3.3 mph /  5.3 km/h 3.3 mph /  5.3 km/h 68 % 0 in /  0.0 mm
23:05 69.3 °F /  20.7 °C 53.4 °F /  11.9 °C 29.8 in /  1010.7 hPa WNW 1 mph /  1.6 km/h 3 mph /  4.8 km/h 57 % 0 in /  0.0 mm
23:09 72.7 °F /  22.6 °C 61.9 °F /  16.6 °C 29.9 in /  1011.7 hPa NNE 3.5 mph /  5.6 km/h 3.5 mph /  5.6 km/h 69 % 0 in /  0.0 mm
23:14 72.7 °F /  22.6 °C 61.9 °F /  16.6 °C 29.9 in /  1011.7 hPa ESE 2.3 mph /  3.7 km/h 2.3 mph /  3.7 km/h 69 % 0 in /  0.0 mm
23:15 69.1 °F /  20.6 °C 53.2 °F /  11.8 °C 29.8 in /  1010.7 hPa NW 1 mph /  1.6 km/h 2 mph /  3.2 km/h 57 % 0 in /  0.0 mm
23:19 72.5 °F /  22.5 °C 61.7 °F /  16.5 °C 29.9 in /  1011.7 hPa ENE 3.5 mph /  5.6 km/h 3.5 mph /  5.6 km/h 69 % 0 in /  0.0 mm
23:24 72.5 °F /  22.5 °C 61.7 °F /  16.5 °C 29.9 in /  1011.7 hPa East 2.6 mph /  4.2 km/h 2.6 mph /  4.2 km/h 69 % 0 in /  0.0 mm
23:25 68.7 °F /  20.4 °C 52.3 °F /  11.3 °C 29.9 in /  1011.7 hPa WNW 1 mph /  1.6 km/h 3 mph /  4.8 km/h 56 % 0 in /  0.0 mm
23:29 72.5 °F /  22.5 °C 62.2 °F /  16.8 °C 29.9 in /  1011.7 hPa NE 2.3 mph /  3.7 km/h 2.3 mph /  3.7 km/h 70 % 0 in /  0.0 mm
23:34 72.3 °F /  22.4 °C 62.1 °F /  16.7 °C 29.9 in /  1011.7 hPa East 1.6 mph /  2.6 km/h 1.6 mph /  2.6 km/h 70 % 0 in /  0.0 mm
23:35 68.2 °F /  20.1 °C 52 °F /  11.1 °C 29.9 in /  1011.7 hPa WNW 1 mph /  1.6 km/h 3 mph /  4.8 km/h 56 % 0 in /  0.0 mm
23:39 72.3 °F /  22.4 °C 62.1 °F /  16.7 °C 29.9 in /  1011.7 hPa ENE 2.9 mph /  4.7 km/h 2.9 mph /  4.7 km/h 70 % 0 in /  0.0 mm
23:44 72.3 °F /  22.4 °C 62.1 °F /  16.7 °C 29.9 in /  1011.7 hPa ENE 2.3 mph /  3.7 km/h 2.3 mph /  3.7 km/h 70 % 0 in /  0.0 mm
23:45 67.8 °F /  19.9 °C 52 °F /  11.1 °C 29.9 in /  1011.7 hPa North 2 mph /  3.2 km/h 2 mph /  3.2 km/h 57 % 0 in /  0.0 mm
23:49 72.1 °F /  22.3 °C 61.9 °F /  16.6 °C 29.9 in /  1011.7 hPa ENE 2.3 mph /  3.7 km/h 2.3 mph /  3.7 km/h 70 % 0 in /  0.0 mm
23:54 72.1 °F /  22.3 °C 61.9 °F /  16.6 °C 29.9 in /  1011.7 hPa NNE 3.5 mph /  5.6 km/h 3.5 mph /  5.6 km/h 70 % 0 in /  0.0 mm
23:55 67.5 °F /  19.7 °C 51.6 °F /  10.9 °C 29.9 in /  1011.7 hPa NE 1 mph /  1.6 km/h 4 mph /  6.4 km/h 57 % 0 in /  0.0 mm
23:59 72.1 °F /  22.3 °C 61.9 °F /  16.6 °C 29.9 in /  1011.7 hPa ENE 2.3 mph /  3.7 km/h 2.3 mph /  3.7 km/h 70 % 0 in /  0.0 mm
Meteo Sesrovires
Elogis d' Weather Underground - 3.75 mb

Guio original per  Jim McMurry - jmcmurry@mwt.net Adaptat per a la plantilla per  Wim van der Kuil - Leuven-Template.eu

Trobareu la nostra informacio del temps tambe a:

Weather Underground

AWEKAS